Time;durP1;ratioP1;P1;durP2;ratioP2;P2;SDS_P1;SDS_P2;PMS_P1;PMS_P2;Temp;Humidity;BMP_temperature;BMP_pressure;BME280_temperature;BME280_humidity;BME280_pressure;Samples;Min_cycle;Max_cycle;Signal;HPM_P1;HPM_P2
2022/08/28 00:02:23;;;;;;;16.65;7.10;;;;;;;18.78;67.14;100789.47;5013825;28;20062;-70
2022/08/28 00:04:50;;;;;;;15.23;6.72;;;;;;;18.80;67.23;100784.66;5013831;28;20057;-70
2022/08/28 00:07:17;;;;;;;18.27;7.20;;;;;;;18.82;67.05;100787.97;5013868;28;20042;-69
2022/08/28 00:09:44;;;;;;;16.05;6.57;;;;;;;18.74;67.12;100786.34;5006125;28;20076;-69
2022/08/28 00:12:11;;;;;;;12.25;6.53;;;;;;;18.76;66.86;100786.13;5014182;28;20497;-69
2022/08/28 00:14:38;;;;;;;18.50;6.85;;;;;;;18.70;66.98;100792.41;5013355;28;20050;-69
2022/08/28 00:17:05;;;;;;;13.15;5.68;;;;;;;18.76;66.78;100794.28;5019259;28;20072;-69
2022/08/28 00:19:31;;;;;;;12.15;6.00;;;;;;;18.85;66.13;100786.72;5033240;28;20037;-69
2022/08/28 00:22:05;;;;;;;13.63;5.35;;;;;;;18.91;65.88;100788.59;5029622;28;20051;-71
2022/08/28 00:24:32;;;;;;;13.13;6.22;;;;;;;18.85;65.67;100798.44;5033172;28;20072;-69
2022/08/28 00:29:44;;;;;;;19.60;5.45;;;;;;;18.76;65.23;100789.69;5033380;28;20045;-69
2022/08/28 00:32:10;;;;;;;12.02;5.13;;;;;;;18.76;65.21;100795.13;5031849;28;20148;-69
2022/08/28 00:34:37;;;;;;;16.27;5.75;;;;;;;18.67;64.89;100793.66;5033403;28;20149;-70
2022/08/28 00:37:04;;;;;;;12.23;5.68;;;;;;;18.60;64.92;100795.56;5033478;28;20049;-70
2022/08/28 00:39:31;;;;;;;15.70;5.70;;;;;;;18.67;64.96;100793.66;5032684;28;20084;-69
2022/08/28 00:41:58;;;;;;;13.70;5.82;;;;;;;18.63;64.79;100797.03;5032472;28;20050;-69
2022/08/28 00:44:27;;;;;;;16.98;5.53;;;;;;;18.57;65.28;100800.59;5032519;28;20056;-69
2022/08/28 00:46:56;;;;;;;19.08;6.03;;;;;;;18.58;64.52;100791.38;5032844;28;20536;-70
2022/08/28 00:49:26;;;;;;;15.60;5.63;;;;;;;18.57;64.23;100801.41;5032899;28;20060;-69
2022/08/28 00:52:11;;;;;;;19.95;4.95;;;;;;;18.57;64.51;100795.16;5033232;28;20067;-70
2022/08/28 00:54:38;;;;;;;11.95;4.80;;;;;;;18.54;64.02;100790.97;5032685;28;20132;-69
2022/08/28 00:57:08;;;;;;;14.02;5.05;;;;;;;18.52;63.63;100787.63;5033279;28;20128;-70
2022/08/28 00:59:35;;;;;;;14.73;5.63;;;;;;;18.51;63.63;100794.97;5032628;28;20082;-69
2022/08/28 01:02:02;;;;;;;14.15;5.07;;;;;;;18.46;63.91;100796.63;5031557;28;20132;-71
2022/08/28 01:04:31;;;;;;;12.25;4.88;;;;;;;18.50;63.98;100789.72;5014758;28;20041;-69
2022/08/28 01:10:50;;;;;;;16.75;5.55;;;;;;;18.46;63.60;100796.63;5031308;28;20076;-70
2022/08/28 01:13:17;;;;;;;15.57;5.90;;;;;;;18.43;63.72;100795.16;5031370;28;20049;-70
2022/08/28 01:15:44;;;;;;;20.02;6.03;;;;;;;18.48;63.82;100797.22;5031986;28;20072;-69
2022/08/28 01:18:14;;;;;;;17.05;5.82;;;;;;;18.52;64.13;100790.34;5017625;28;20488;-69
2022/08/28 01:20:50;;;;;;;;;;;;;;;18.50;64.37;100790.56;5013630;28;20085;-69
2022/08/28 01:23:48;;;;;;;13.60;6.53;;;;;;;18.54;64.50;100796.41;5011674;28;20347;-70
2022/08/28 01:26:14;;;;;;;20.30;7.95;;;;;;;18.54;64.89;100790.97;5012318;28;20397;-69
2022/08/28 01:28:41;;;;;;;21.02;7.97;;;;;;;18.55;64.93;100787.22;5017399;28;20128;-70
2022/08/28 01:31:10;;;;;;;19.80;7.53;;;;;;;18.54;65.47;100796.41;5012400;28;20549;-71
2022/08/28 01:33:38;;;;;;;21.77;8.35;;;;;;;18.54;65.30;100797.22;5011648;28;20069;-70
2022/08/28 01:36:10;;;;;;;16.65;7.03;;;;;;;18.49;65.86;100794.31;5011911;28;20386;-70
2022/08/28 01:38:39;;;;;;;16.20;7.47;;;;;;;18.62;65.47;100793.47;5011280;28;20117;-71
2022/08/28 01:41:06;;;;;;;20.08;8.00;;;;;;;18.62;65.45;100804.34;5011898;28;20117;-70
2022/08/28 01:43:32;;;;;;;20.35;8.43;;;;;;;18.61;65.61;100793.66;5011937;28;20049;-71
2022/08/28 01:46:03;;;;;;;17.75;8.23;;;;;;;18.65;65.49;100800.34;5011284;28;20132;-71
2022/08/28 01:48:35;;;;;;;20.00;8.65;;;;;;;18.59;65.80;100793.91;5012033;28;20085;-70
2022/08/28 01:51:02;;;;;;;;;;;;;;;18.64;65.53;100793.25;5013314;28;20073;-70
2022/08/28 01:53:28;;;;;;;19.45;8.85;;;;;;;18.64;65.57;100790.53;5010642;28;20002;-70
2022/08/28 01:56:03;;;;;;;17.83;8.90;;;;;;;18.65;65.75;100786.75;5011784;28;20038;-71
2022/08/28 01:58:30;;;;;;;19.88;8.95;;;;;;;18.63;65.82;100784.28;5009755;28;20084;-70
2022/08/28 02:01:07;;;;;;;17.48;8.27;;;;;;;18.67;65.46;100790.94;5019676;28;20050;-69
2022/08/28 02:03:33;;;;;;;16.73;8.70;;;;;;;18.69;65.61;100786.16;5012515;28;20124;-69
2022/08/28 02:06:00;;;;;;;17.40;9.10;;;;;;;18.59;66.07;100788.47;5010899;28;20125;-69
2022/08/28 02:08:27;;;;;;;23.25;8.80;;;;;;;18.63;65.90;100797.84;5011742;28;20137;-69
2022/08/28 02:10:53;;;;;;;16.25;8.43;;;;;;;18.69;65.64;100794.31;5011885;28;20500;-68
2022/08/28 02:13:21;;;;;;;16.23;8.13;;;;;;;18.68;65.45;100797.22;5008730;28;20221;-70
2022/08/28 02:15:51;;;;;;;23.08;8.88;;;;;;;18.64;65.42;100796.81;5011885;28;20069;-71
2022/08/28 02:18:17;;;;;;;16.30;8.57;;;;;;;18.52;65.59;100793.06;5026489;28;20045;-70
2022/08/28 02:20:44;;;;;;;17.33;8.68;;;;;;;18.65;65.07;100794.91;5030582;28;20047;-70
2022/08/28 02:23:11;;;;;;;16.02;7.70;;;;;;;18.64;65.04;100799.53;5031497;28;20477;-69
2022/08/28 02:25:38;;;;;;;21.00;8.63;;;;;;;18.69;64.45;100807.88;5013807;28;20049;-69
2022/08/28 02:28:04;;;;;;;17.48;7.82;;;;;;;18.64;64.56;100799.53;5025773;28;20460;-69
2022/08/28 02:30:31;;;;;;;21.25;7.43;;;;;;;18.72;64.28;100809.31;5030918;28;20056;-69
2022/08/28 02:32:58;;;;;;;20.98;7.03;;;;;;;18.71;64.19;100807.66;5031302;28;20083;-69
2022/08/28 02:35:25;;;;;;;19.02;7.47;;;;;;;18.63;63.72;100805.19;5026791;28;20506;-69
2022/08/28 02:37:51;;;;;;;16.35;6.32;;;;;;;18.67;63.17;100809.13;5031112;28;20128;-69
2022/08/28 02:40:23;;;;;;;18.55;6.65;;;;;;;18.63;63.04;100810.63;5031322;28;20508;-68
2022/08/28 02:42:50;;;;;;;13.63;5.75;;;;;;;18.74;62.72;100812.69;5030406;28;20100;-69
2022/08/28 02:45:18;;;;;;;21.20;6.43;;;;;;;18.70;62.26;100806.84;5030031;28;20049;-69
2022/08/28 02:47:46;;;;;;;14.52;6.13;;;;;;;18.62;62.21;100809.78;5030864;28;20104;-69
2022/08/28 02:50:16;;;;;;;17.83;5.95;;;;;;;18.61;62.53;100808.09;5031474;28;20494;-69
2022/08/28 02:52:42;;;;;;;13.60;5.88;;;;;;;18.56;62.01;100805.19;5030932;28;20065;-69
2022/08/28 02:55:11;;;;;;;15.35;5.93;;;;;;;18.50;62.56;100808.75;5030286;28;20129;-69
2022/08/28 02:57:37;;;;;;;19.25;5.60;;;;;;;18.54;62.10;100808.09;5031241;28;20076;-70
2022/08/28 03:00:06;;;;;;;17.85;5.60;;;;;;;18.49;61.99;100813.34;5030335;28;20089;-69
2022/08/28 03:02:33;;;;;;;22.13;6.15;;;;;;;18.37;62.09;100809.56;5030488;28;20069;-70
2022/08/28 03:05:00;;;;;;;18.00;6.53;;;;;;;18.33;62.54;100815.66;5030462;28;20552;-70
2022/08/28 03:07:28;;;;;;;17.60;5.45;;;;;;;18.29;62.14;100815.22;5027530;28;20063;-69
2022/08/28 03:09:54;;;;;;;24.40;5.95;;;;;;;18.27;62.51;100810.03;5031157;28;20069;-70
2022/08/28 03:12:24;;;;;;;19.75;5.47;;;;;;;18.28;62.58;100810.84;5030951;28;20136;-69
2022/08/28 03:14:53;;;;;;;19.90;5.25;;;;;;;18.18;62.40;100807.72;5030873;28;20077;-69
2022/08/28 03:17:20;;;;;;;12.93;5.32;;;;;;;18.17;62.40;100806.03;5021652;28;20080;-69
2022/08/28 03:19:49;;;;;;;14.98;4.90;;;;;;;18.14;62.33;100803.72;5030625;28;20100;-69
2022/08/28 03:25:05;;;;;;;19.27;5.68;;;;;;;18.26;62.06;100810.22;5030535;28;20097;-69
2022/08/28 03:27:32;;;;;;;17.20;5.00;;;;;;;18.16;62.07;100802.47;5030118;28;20055;-69
2022/08/28 03:30:00;;;;;;;25.83;5.00;;;;;;;18.07;61.92;100812.69;5030779;28;20068;-69
2022/08/28 03:32:28;;;;;;;17.38;5.03;;;;;;;18.12;62.21;100816.66;5029705;28;20128;-70
2022/08/28 03:34:54;;;;;;;19.88;4.95;;;;;;;18.18;61.77;100821.28;5030642;28;20042;-70
2022/08/28 03:37:21;;;;;;;17.92;5.20;;;;;;;18.17;61.80;100812.31;5029529;28;20060;-70
2022/08/28 03:39:48;;;;;;;17.10;4.68;;;;;;;18.20;61.22;100811.91;5030312;28;20400;-70
2022/08/28 03:42:14;;;;;;;14.60;4.68;;;;;;;18.15;61.34;100813.56;5031284;28;20128;-69
2022/08/28 03:44:41;;;;;;;12.43;4.65;;;;;;;18.11;61.33;100817.69;5030408;28;20080;-69
2022/08/28 03:47:07;;;;;;;19.70;4.65;;;;;;;18.02;61.45;100820.59;5026129;28;20124;-69
2022/08/28 03:49:35;;;;;;;16.63;4.75;;;;;;;18.01;61.89;100823.53;5030168;28;20053;-70
2022/08/28 03:52:02;;;;;;;20.08;5.18;;;;;;;18.05;61.77;100813.94;5030474;28;20117;-70
2022/08/28 03:54:30;;;;;;;17.70;4.88;;;;;;;17.97;61.87;100814.97;5030190;28;20561;-70
2022/08/28 03:56:57;;;;;;;16.63;4.53;;;;;;;17.98;61.46;100822.06;5022118;28;20132;-70
2022/08/28 03:59:24;;;;;;;20.70;4.70;;;;;;;17.95;61.59;100814.34;5030678;28;20140;-69
2022/08/28 04:01:57;;;;;;;13.43;4.10;;;;;;;17.99;61.64;100828.31;5030394;28;20204;-69
2022/08/28 04:04:23;;;;;;;21.95;4.57;;;;;;;18.02;61.13;100836.88;5030084;28;20088;-69
2022/08/28 04:06:49;;;;;;;22.25;7.15;;;;;;;17.98;60.94;100824.78;5012591;28;20132;-69
2022/08/28 04:09:16;;;;;;;17.85;6.35;;;;;;;17.94;61.24;100833.56;5030438;28;20545;-70
2022/08/28 04:11:42;;;;;;;20.30;5.43;;;;;;;17.90;61.40;100835.84;5030701;28;20064;-70
2022/08/28 04:14:11;;;;;;;18.70;5.00;;;;;;;17.93;60.92;100840.88;5029388;28;20136;-70
2022/08/28 04:16:37;;;;;;;19.20;4.15;;;;;;;17.89;61.72;100841.47;5033680;28;20076;-70
2022/08/28 04:19:04;;;;;;;16.13;4.32;;;;;;;18.00;60.66;100843.59;5033498;28;20064;-70
2022/08/28 04:21:31;;;;;;;15.73;4.10;;;;;;;17.99;60.64;100841.91;5016107;28;20137;-70
2022/08/28 04:23:57;;;;;;;16.30;4.10;;;;;;;17.91;60.59;100844.81;5011117;28;20061;-69
2022/08/28 04:26:25;;;;;;;18.98;3.95;;;;;;;17.82;61.15;100847.72;5014359;28;20501;-70
2022/08/28 04:28:53;;;;;;;20.02;4.43;;;;;;;17.91;61.02;100855.66;5007228;28;20453;-69
2022/08/28 04:31:21;;;;;;;17.83;4.18;;;;;;;17.82;60.93;100855.00;5014346;28;20049;-70
2022/08/28 04:34:00;;;;;;;18.25;5.05;;;;;;;17.85;60.93;100854.59;5014739;28;20138;-69
2022/08/28 04:36:27;;;;;;;20.23;4.97;;;;;;;17.82;60.30;100863.16;5013410;28;20517;-69
2022/08/28 04:38:56;;;;;;;18.88;4.53;;;;;;;17.82;60.79;100874.00;5013239;28;20549;-69
2022/08/28 04:41:23;;;;;;;16.98;4.88;;;;;;;17.74;60.74;100877.75;5013212;28;20133;-69
2022/08/28 04:43:51;;;;;;;19.13;4.60;;;;;;;17.76;60.46;100878.38;5013173;28;20046;-69
2022/08/28 04:46:18;;;;;;;23.33;4.53;;;;;;;17.75;60.92;100875.88;5014379;28;20128;-70
2022/08/28 04:48:44;;;;;;;22.95;4.20;;;;;;;17.78;60.80;100872.75;5013829;28;20101;-70
2022/08/28 04:51:13;;;;;;;15.73;3.72;;;;;;;17.78;60.49;100876.28;5014491;28;20442;-69
2022/08/28 04:53:41;;;;;;;19.13;3.97;;;;;;;17.88;60.31;100867.78;5013021;28;20192;-69
2022/08/28 04:56:10;;;;;;;18.55;4.20;;;;;;;17.93;59.92;100870.72;5009058;28;20113;-70
2022/08/28 04:58:38;;;;;;;15.13;3.92;;;;;;;17.90;60.06;100865.69;5013415;28;20065;-70
2022/08/28 05:01:08;;;;;;;28.83;4.40;;;;;;;17.92;59.86;100877.16;5012146;28;20134;-69
2022/08/28 05:03:34;;;;;;;19.42;3.63;;;;;;;17.95;59.98;100871.34;5014023;28;20054;-69
2022/08/28 05:06:02;;;;;;;13.13;4.07;;;;;;;17.91;59.79;100867.34;5013399;28;20069;-70
2022/08/28 05:08:30;;;;;;;17.17;3.67;;;;;;;17.89;59.51;100874.88;5012800;28;20054;-70
2022/08/28 05:10:57;;;;;;;22.75;3.97;;;;;;;17.88;59.36;100878.63;4995428;28;20076;-69
2022/08/28 05:13:24;;;;;;;19.20;3.67;;;;;;;18.01;59.29;100878.66;5013480;28;20390;-69
2022/08/28 05:15:51;;;;;;;21.70;4.70;;;;;;;18.05;58.81;100879.09;5011626;28;20121;-69
2022/08/28 05:18:21;;;;;;;25.98;4.50;;;;;;;17.92;58.87;100881.75;5013073;28;20054;-69
2022/08/28 05:20:47;;;;;;;17.63;4.05;;;;;;;17.81;59.50;100883.19;5014804;28;20050;-69
2022/08/28 05:23:15;;;;;;;19.70;4.40;;;;;;;17.67;59.89;100885.03;5012262;28;20140;-69
2022/08/28 05:25:45;;;;;;;17.15;4.15;;;;;;;17.58;59.81;100887.09;5012930;28;20124;-69
2022/08/28 05:28:13;;;;;;;23.98;4.13;;;;;;;17.52;59.85;100885.19;5008574;28;20074;-69
2022/08/28 05:30:40;;;;;;;20.23;4.05;;;;;;;17.56;60.32;100882.91;5014151;28;20133;-69
2022/08/28 05:33:08;;;;;;;18.25;3.42;;;;;;;17.62;60.33;100892.97;5009516;28;20528;-69
2022/08/28 05:35:37;;;;;;;16.50;4.03;;;;;;;17.64;59.65;100892.75;5028892;28;20452;-69
2022/08/28 05:38:05;;;;;;;21.75;4.47;;;;;;;17.64;59.86;100898.16;5031856;28;20061;-69
2022/08/28 05:40:32;;;;;;;23.00;4.13;;;;;;;17.60;59.59;100903.16;5032112;28;20054;-69
2022/08/28 05:42:59;;;;;;;27.23;4.50;;;;;;;17.47;59.68;100897.66;5019029;28;20457;-69
2022/08/28 05:45:25;;;;;;;17.10;4.55;;;;;;;17.39;59.68;100900.56;5014362;28;20129;-69
2022/08/28 05:47:52;;;;;;;19.95;4.68;;;;;;;17.41;59.82;100912.06;5012896;28;20124;-69
2022/08/28 05:50:19;;;;;;;20.40;4.68;;;;;;;17.35;59.93;100903.66;5015870;28;20468;-69
2022/08/28 05:52:46;;;;;;;15.35;4.05;;;;;;;17.45;60.70;100906.03;5032673;28;20049;-69
2022/08/28 05:55:12;;;;;;;20.73;4.35;;;;;;;17.62;60.57;100905.69;5014816;28;20042;-69
2022/08/28 05:57:40;;;;;;;23.67;4.97;;;;;;;17.51;60.64;100902.50;5012957;28;20133;-69
2022/08/28 06:00:11;;;;;;;21.17;4.63;;;;;;;17.63;60.60;100902.75;5013113;28;20133;-70
2022/08/28 06:02:39;;;;;;;20.60;4.57;;;;;;;17.92;59.25;100904.31;5013663;28;20140;-69
2022/08/28 06:05:06;;;;;;;18.15;4.10;;;;;;;17.95;59.35;100905.78;5007890;28;20084;-69
2022/08/28 06:07:33;;;;;;;14.80;4.65;;;;;;;18.06;58.62;100903.34;5012643;28;20521;-70
2022/08/28 06:10:00;;;;;;;19.02;3.90;;;;;;;18.14;57.56;100912.31;5013987;28;20446;-69
2022/08/28 06:12:27;;;;;;;22.95;4.20;;;;;;;18.09;58.14;100913.75;5013251;28;20493;-69
2022/08/28 06:14:53;;;;;;;20.90;4.65;;;;;;;18.16;58.01;100910.25;5030903;28;20128;-69
2022/08/28 06:17:22;;;;;;;20.10;5.07;;;;;;;18.17;57.80;100903.78;5024265;28;20050;-69
2022/08/28 06:19:49;;;;;;;17.83;4.70;;;;;;;18.27;57.12;100905.06;5014237;28;20049;-69
2022/08/28 06:22:17;;;;;;;27.92;5.93;;;;;;;18.21;57.29;100911.31;5014653;28;20545;-69
2022/08/28 06:24:43;;;;;;;18.52;4.82;;;;;;;18.23;57.16;100908.38;5012881;28;20074;-69
2022/08/28 06:27:10;;;;;;;18.50;4.88;;;;;;;18.26;56.95;100903.38;5014674;28;20046;-69
2022/08/28 06:29:36;;;;;;;17.38;4.40;;;;;;;18.30;56.75;100914.66;5012174;28;20133;-69
2022/08/28 06:32:03;;;;;;;17.42;4.28;;;;;;;18.33;56.67;100914.25;5011457;28;20065;-69
2022/08/28 06:34:30;;;;;;;16.85;5.03;;;;;;;18.03;57.53;100917.31;5011738;28;20057;-69
2022/08/28 06:36:56;;;;;;;23.67;5.47;;;;;;;18.11;57.28;100920.88;5012887;28;20072;-68
2022/08/28 06:39:23;;;;;;;19.30;4.85;;;;;;;18.08;57.57;100925.66;5011436;28;20072;-70
2022/08/28 06:41:49;;;;;;;24.35;5.18;;;;;;;18.17;57.02;100920.06;5009473;28;20438;-70
2022/08/28 06:44:18;;;;;;;17.95;4.90;;;;;;;18.29;56.55;100919.25;5011729;28;20080;-70
2022/08/28 06:46:50;;;;;;;22.38;5.20;;;;;;;18.15;57.02;100925.72;5011212;28;20100;-69
2022/08/28 06:49:17;;;;;;;21.00;5.15;;;;;;;18.28;56.78;100927.63;5011940;28;20145;-71
2022/08/28 06:51:43;;;;;;;16.95;4.65;;;;;;;18.18;56.84;100925.31;5011306;28;20128;-69
2022/08/28 06:54:10;;;;;;;20.83;5.55;;;;;;;18.35;56.40;100933.91;5012922;28;20081;-70
2022/08/28 06:56:37;;;;;;;17.15;4.95;;;;;;;18.40;56.10;100933.28;5011515;28;20080;-70
2022/08/28 06:59:03;;;;;;;20.15;5.13;;;;;;;18.34;56.39;100939.53;5011865;28;20050;-70
2022/08/28 07:01:33;;;;;;;18.00;4.82;;;;;;;18.44;56.07;100948.94;5011181;28;20394;-69
2022/08/28 07:04:06;;;;;;;21.42;5.32;;;;;;;18.12;56.84;100950.53;5011260;28;20386;-70
2022/08/28 07:06:38;;;;;;;21.27;6.03;;;;;;;18.06;56.95;100949.47;5013855;28;20069;-68
2022/08/28 07:09:08;;;;;;;13.27;4.45;;;;;;;18.13;56.29;100951.34;5011040;28;20045;-70
2022/08/28 07:11:35;;;;;;;21.75;6.38;;;;;;;18.13;56.46;100956.78;5011220;28;20529;-70
2022/08/28 07:14:03;;;;;;;21.10;4.70;;;;;;;18.17;56.48;100958.94;5011761;28;20072;-69
2022/08/28 07:16:33;;;;;;;16.38;4.90;;;;;;;18.40;56.00;100953.13;5010815;28;20125;-70
2022/08/28 07:19:03;;;;;;;21.08;4.65;;;;;;;18.45;55.72;100958.78;5012707;28;20571;-69
2022/08/28 07:21:32;;;;;;;17.85;4.55;;;;;;;18.64;55.21;100956.28;5010062;28;20066;-69
2022/08/28 07:24:05;;;;;;;21.45;5.25;;;;;;;18.71;54.91;100968.00;5013676;28;20073;-70
2022/08/28 07:26:31;;;;;;;18.45;4.97;;;;;;;18.72;54.74;100966.94;5011340;28;20054;-70
2022/08/28 07:29:02;;;;;;;16.48;4.80;;;;;;;18.59;55.03;100966.97;5011060;28;20412;-70
2022/08/28 07:31:39;;;;;;;17.48;4.72;;;;;;;18.83;54.55;100969.06;5011106;28;20050;-70
2022/08/28 07:34:07;;;;;;;17.35;5.30;;;;;;;18.83;54.61;100969.06;5010599;28;20508;-70
2022/08/28 07:36:34;;;;;;;16.20;4.90;;;;;;;19.08;53.58;100972.00;5010812;28;20080;-70
2022/08/28 07:39:01;;;;;;;22.67;4.80;;;;;;;19.60;51.94;100975.69;5018135;28;20440;-70
2022/08/28 07:41:31;;;;;;;22.52;4.85;;;;;;;19.25;52.79;100989.56;5030807;28;20049;-69
2022/08/28 07:46:44;;;;;;;20.08;5.38;;;;;;;19.28;52.79;100982.88;5010598;28;20046;-69
2022/08/28 07:49:14;;;;;;;18.65;4.85;;;;;;;19.37;52.79;100992.47;5011442;28;20124;-69
2022/08/28 07:51:40;;;;;;;17.25;4.75;;;;;;;19.56;52.17;100979.88;5013836;28;20073;-70
2022/08/28 07:54:08;;;;;;;15.50;4.60;;;;;;;19.34;52.58;100987.44;5013467;28;20105;-71
2022/08/28 07:56:42;;;;;;;15.10;4.35;;;;;;;19.42;52.75;100983.69;5014533;28;20421;-70
2022/08/28 07:59:10;;;;;;;15.80;4.68;;;;;;;19.29;52.72;100989.97;5010825;28;20046;-71
2022/08/28 08:01:42;;;;;;;20.02;4.15;;;;;;;19.54;52.24;100990.13;5014426;28;20504;-71
2022/08/28 08:04:12;;;;;;;23.35;5.63;;;;;;;19.60;52.17;100996.63;5013805;28;20490;-69
2022/08/28 08:06:40;;;;;;;19.33;4.90;;;;;;;19.23;53.14;100988.94;5014175;28;20118;-69
2022/08/28 08:09:08;;;;;;;20.33;4.70;;;;;;;20.04;50.99;100995.00;5014197;28;20092;-71
2022/08/28 08:11:35;;;;;;;19.52;5.13;;;;;;;19.92;51.19;100990.25;5007714;28;20137;-71
2022/08/28 08:14:03;;;;;;;17.02;4.53;;;;;;;20.72;48.78;100994.44;5014117;28;20124;-70
2022/08/28 08:16:34;;;;;;;21.50;5.00;;;;;;;21.30;48.09;101007.84;5023137;28;20060;-70
2022/08/28 08:19:01;;;;;;;17.52;4.30;;;;;;;20.66;48.82;100998.88;5034139;28;20049;-71
2022/08/28 08:21:28;;;;;;;17.23;4.47;;;;;;;20.14;50.26;101003.56;5034388;28;20556;-70
2022/08/28 08:23:57;;;;;;;21.95;3.92;;;;;;;20.12;50.54;101003.78;5034399;28;20147;-71
2022/08/28 08:26:26;;;;;;;18.55;4.60;;;;;;;20.57;49.43;101011.13;5034120;28;20050;-72
2022/08/28 08:28:54;;;;;;;13.80;3.83;;;;;;;20.49;49.81;101004.03;5034249;28;20048;-70
2022/08/28 08:31:25;;;;;;;15.45;4.35;;;;;;;20.38;49.86;101005.50;5033967;28;20049;-70
2022/08/28 08:33:55;;;;;;;12.85;4.28;;;;;;;20.42;49.92;101001.34;5034302;28;20041;-70
2022/08/28 08:36:24;;;;;;;15.82;4.28;;;;;;;20.52;49.45;101010.91;5034322;28;20133;-71
2022/08/28 08:38:51;;;;;;;19.20;4.68;;;;;;;20.13;50.17;101002.72;5032766;28;20049;-69
2022/08/28 08:41:32;;;;;;;17.67;4.20;;;;;;;20.60;48.98;101014.25;5017750;28;20053;-70
2022/08/28 08:44:16;;;;;;;13.55;3.97;;;;;;;20.58;49.44;101015.50;5031142;28;20132;-70
2022/08/28 08:47:02;;;;;;;14.65;5.00;;;;;;;20.95;48.18;101013.78;5032352;28;20148;-72
2022/08/28 08:49:34;;;;;;;15.20;5.78;;;;;;;21.17;47.94;101019.69;5033807;28;20128;-71
2022/08/28 08:52:04;;;;;;;16.92;4.57;;;;;;;21.38;47.40;101027.47;5034096;28;20050;-71
2022/08/28 08:54:30;;;;;;;22.33;5.13;;;;;;;21.61;46.69;101028.72;5033240;28;20124;-70
2022/08/28 08:57:01;;;;;;;18.63;4.55;;;;;;;21.01;47.85;101022.94;5032899;28;20128;-70
2022/08/28 08:59:32;;;;;;;16.92;4.20;;;;;;;21.14;47.69;101022.88;5033535;28;20088;-70
2022/08/28 09:02:09;;;;;;;17.27;4.65;;;;;;;20.98;48.23;101023.41;5031381;28;20482;-70
2022/08/28 09:05:00;;;;;;;18.75;4.38;;;;;;;20.75;48.70;101022.09;5033123;28;20049;-70
2022/08/28 09:07:36;;;;;;;14.90;4.25;;;;;;;20.39;49.87;101023.56;5019943;28;20120;-70
2022/08/28 09:10:07;;;;;;;13.27;3.85;;;;;;;20.31;49.82;101031.97;5032812;28;20045;-69
2022/08/28 09:13:11;;;;;;;15.93;4.78;;;;;;;20.16;50.33;101023.25;5033249;28;20084;-70
2022/08/28 09:15:40;;;;;;;18.15;4.60;;;;;;;20.04;50.61;101027.69;5032457;28;20088;-71
2022/08/28 09:18:17;;;;;;;15.40;4.93;;;;;;;19.77;51.63;101032.41;5032804;28;20042;-71
2022/08/28 09:20:48;;;;;;;19.48;4.78;;;;;;;19.83;51.02;101037.84;5033088;28;20052;-71
2022/08/28 09:23:15;;;;;;;13.73;4.00;;;;;;;19.87;51.28;101036.34;5031720;28;20057;-71
2022/08/28 09:25:58;;;;;;;20.90;4.80;;;;;;;19.83;51.09;101046.00;5030945;28;20137;-71
2022/08/28 09:28:35;;;;;;;20.40;4.85;;;;;;;19.98;50.89;101044.91;5033437;28;20148;-71
2022/08/28 09:31:12;;;;;;;20.05;5.28;;;;;;;20.00;50.47;101040.06;5028450;28;20052;-71
2022/08/28 09:33:41;;;;;;;18.80;4.30;;;;;;;19.87;51.39;101039.06;5032896;28;20042;-71
2022/08/28 09:36:22;;;;;;;15.82;5.00;;;;;;;19.99;51.13;101035.69;5031436;28;20092;-71
2022/08/28 09:39:13;;;;;;;11.35;4.63;;;;;;;20.02;50.84;101038.81;5027091;28;20136;-70
2022/08/28 09:45:03;;;;;;;16.63;4.78;;;;;;;20.00;50.83;101038.19;5032233;28;20069;-70
2022/08/28 09:47:42;;;;;;;16.80;4.78;;;;;;;20.11;50.58;101053.88;5032649;28;20045;-71
2022/08/28 09:50:29;;;;;;;13.82;4.32;;;;;;;19.97;50.81;101049.53;5031738;28;20079;-71
2022/08/28 09:53:18;;;;;;;13.20;4.53;;;;;;;19.69;52.40;101050.66;5032116;28;20050;-71
2022/08/28 09:56:09;;;;;;;18.85;5.28;;;;;;;20.09;50.66;101047.78;5032275;28;20083;-71
2022/08/28 09:58:56;;;;;;;16.42;5.13;;;;;;;20.14;50.22;101060.75;5031470;28;20132;-71
2022/08/28 10:01:28;;;;;;;17.42;5.00;;;;;;;20.23;50.17;101062.19;5032135;28;20129;-70
2022/08/28 10:04:21;;;;;;;14.55;5.18;;;;;;;20.06;50.30;101064.56;5031562;28;20056;-70
2022/08/28 10:06:50;;;;;;;24.30;5.50;;;;;;;19.52;51.89;101064.84;5026243;28;20503;-70
2022/08/28 10:09:38;;;;;;;17.30;5.88;;;;;;;19.83;51.23;101072.38;5031372;28;20132;-70
2022/08/28 10:12:38;;;;;;;18.73;5.28;;;;;;;19.64;51.87;101063.19;5030763;28;20037;-70
2022/08/28 10:15:13;;;;;;;15.88;5.75;;;;;;;19.50;52.36;101065.91;5031506;28;20041;-70
2022/08/28 10:18:05;;;;;;;21.73;5.53;;;;;;;19.48;52.07;101069.88;5030369;28;20138;-70
2022/08/28 10:20:49;;;;;;;16.25;6.07;;;;;;;19.54;52.22;101068.22;5030791;28;20041;-70
2022/08/28 10:23:41;;;;;;;20.20;5.90;;;;;;;19.52;52.26;101067.56;5029955;28;20045;-70
2022/08/28 10:26:20;;;;;;;22.52;6.18;;;;;;;19.52;52.13;101076.59;5030179;28;20136;-70
2022/08/28 10:29:17;;;;;;;19.80;6.75;;;;;;;19.41;52.77;101079.94;5022139;28;20128;-70
2022/08/28 10:31:54;;;;;;;17.63;6.47;;;;;;;19.08;53.41;101074.50;5018717;28;20065;-70
2022/08/28 10:34:29;;;;;;;15.68;5.93;;;;;;;18.46;54.76;101079.16;5012920;28;20048;-69
2022/08/28 10:37:08;;;;;;;16.73;6.03;;;;;;;18.16;55.89;101076.72;5029547;28;20132;-69
2022/08/28 10:39:52;;;;;;;17.15;6.47;;;;;;;18.81;54.29;101090.75;5026616;28;20545;-69
2022/08/28 10:42:58;;;;;;;16.15;4.90;;;;;;;18.94;54.17;101092.69;5030063;28;20102;-71
2022/08/28 10:45:25;;;;;;;19.40;6.60;;;;;;;18.66;55.16;101092.81;5011001;28;20052;-71
2022/08/28 10:47:57;;;;;;;16.92;5.38;;;;;;;18.85;54.37;101093.88;5028630;28;20049;-70
2022/08/28 10:50:28;;;;;;;15.77;6.28;;;;;;;18.93;54.02;101099.16;5029799;28;20136;-69
2022/08/28 10:53:16;;;;;;;13.45;5.60;;;;;;;19.05;53.83;101093.97;5030153;28;20136;-69
2022/08/28 10:55:48;;;;;;;15.07;6.22;;;;;;;18.71;54.76;101096.56;5029402;28;20045;-69
2022/08/28 10:58:15;;;;;;;16.23;5.78;;;;;;;18.68;54.72;101107.00;5030671;28;20067;-69
2022/08/28 11:00:54;;;;;;;12.77;5.32;;;;;;;18.77;54.71;101108.50;5030291;28;20480;-70
2022/08/28 11:03:24;;;;;;;16.67;6.00;;;;;;;18.64;54.97;101103.03;5029363;28;20107;-70
2022/08/28 11:06:10;;;;;;;12.20;5.13;;;;;;;18.92;54.29;101103.75;5029468;28;20484;-70
2022/08/28 11:08:38;;;;;;;14.02;5.43;;;;;;;18.82;54.62;101102.44;5029963;28;20432;-69
2022/08/28 11:11:12;;;;;;;18.40;6.32;;;;;;;18.70;55.07;101107.66;5031043;28;20382;-69
2022/08/28 11:13:44;;;;;;;20.85;6.10;;;;;;;18.65;55.20;101110.13;5029436;28;20463;-69
2022/08/28 11:16:22;;;;;;;15.43;6.23;;;;;;;18.76;55.04;101113.13;4984515;28;1189560;-68
2022/08/28 11:19:03;;;;;;;22.73;6.32;;;;;;;18.65;55.31;101108.25;5030020;28;20128;-69
2022/08/28 11:21:40;;;;;;;19.58;6.70;;;;;;;18.46;55.76;101114.47;5029754;28;20100;-69
2022/08/28 11:24:20;;;;;;;19.95;6.85;;;;;;;18.55;55.71;101116.81;5031133;28;20076;-69
2022/08/28 11:26:59;;;;;;;25.13;6.20;;;;;;;18.27;57.08;101116.91;5029317;28;20453;-70
2022/08/28 11:29:56;;;;;;;17.08;6.30;;;;;;;18.20;56.84;101123.31;5030073;28;20056;-70
2022/08/28 11:32:32;;;;;;;13.98;5.75;;;;;;;18.63;55.32;101114.94;5030034;28;20073;-71
2022/08/28 11:35:01;;;;;;;15.55;6.70;;;;;;;18.40;56.08;101121.53;5030801;28;20129;-70
2022/08/28 11:37:39;;;;;;;20.88;6.88;;;;;;;17.81;58.01;101119.31;5030064;28;20489;-70
2022/08/28 11:40:27;;;;;;;24.33;6.72;;;;;;;18.08;57.41;101123.84;5030982;28;20088;-69
2022/08/28 11:43:15;;;;;;;18.63;7.03;;;;;;;18.40;56.35;101124.25;5029446;28;20050;-70
2022/08/28 11:45:42;;;;;;;18.65;6.57;;;;;;;18.52;56.04;101119.94;5026198;28;20041;-70
2022/08/28 11:48:35;;;;;;;16.95;5.68;;;;;;;18.59;55.75;101119.13;5030370;28;20058;-70
2022/08/28 11:51:16;;;;;;;17.83;6.35;;;;;;;18.39;56.19;101117.16;5029803;28;20095;-69